sensor_id;sensor_type;location;lat;lon;timestamp;temperature;humidity
46336;DHT22;31365;48.858;8.530;2023-05-10T00:02:22;12.90;99.90
46336;DHT22;31365;48.858;8.530;2023-05-10T00:04:51;12.90;99.90
46336;DHT22;31365;48.858;8.530;2023-05-10T00:07:19;13.00;99.90
46336;DHT22;31365;48.858;8.530;2023-05-10T00:09:49;12.90;99.90
46336;DHT22;31365;48.858;8.530;2023-05-10T00:12:17;12.90;99.90
46336;DHT22;31365;48.858;8.530;2023-05-10T00:14:45;12.90;99.90
46336;DHT22;31365;48.858;8.530;2023-05-10T00:17:14;12.90;99.90
46336;DHT22;31365;48.858;8.530;2023-05-10T00:19:42;12.90;99.90
46336;DHT22;31365;48.858;8.530;2023-05-10T00:22:11;12.80;99.90
46336;DHT22;31365;48.858;8.530;2023-05-10T00:24:39;12.80;99.90
46336;DHT22;31365;48.858;8.530;2023-05-10T00:27:29;12.80;99.90
46336;DHT22;31365;48.858;8.530;2023-05-10T00:29:57;12.90;99.90
46336;DHT22;31365;48.858;8.530;2023-05-10T00:32:26;12.90;99.90
46336;DHT22;31365;48.858;8.530;2023-05-10T00:34:55;12.90;99.90
46336;DHT22;31365;48.858;8.530;2023-05-10T00:37:23;12.90;99.90
46336;DHT22;31365;48.858;8.530;2023-05-10T00:39:51;12.80;99.90
46336;DHT22;31365;48.858;8.530;2023-05-10T00:42:20;12.80;99.90
46336;DHT22;31365;48.858;8.530;2023-05-10T00:44:50;12.80;99.90
46336;DHT22;31365;48.858;8.530;2023-05-10T00:47:18;12.80;99.90
46336;DHT22;31365;48.858;8.530;2023-05-10T00:49:46;12.90;99.90
46336;DHT22;31365;48.858;8.530;2023-05-10T00:52:15;12.90;99.90
46336;DHT22;31365;48.858;8.530;2023-05-10T00:54:44;12.90;99.90
46336;DHT22;31365;48.858;8.530;2023-05-10T00:57:12;12.80;99.90
46336;DHT22;31365;48.858;8.530;2023-05-10T00:59:41;12.90;99.90
46336;DHT22;31365;48.858;8.530;2023-05-10T01:02:10;12.80;99.90
46336;DHT22;31365;48.858;8.530;2023-05-10T01:04:40;12.80;99.90
46336;DHT22;31365;48.858;8.530;2023-05-10T01:07:09;12.80;99.90
46336;DHT22;31365;48.858;8.530;2023-05-10T01:09:37;12.80;99.90
46336;DHT22;31365;48.858;8.530;2023-05-10T01:12:05;12.80;99.90
46336;DHT22;31365;48.858;8.530;2023-05-10T01:14:34;12.90;99.90
46336;DHT22;31365;48.858;8.530;2023-05-10T01:17:05;12.90;99.90
46336;DHT22;31365;48.858;8.530;2023-05-10T01:19:36;12.90;99.90
46336;DHT22;31365;48.858;8.530;2023-05-10T01:22:15;12.90;99.90
46336;DHT22;31365;48.858;8.530;2023-05-10T01:25:16;12.90;99.90
46336;DHT22;31365;48.858;8.530;2023-05-10T01:28:17;12.90;99.90
46336;DHT22;31365;48.858;8.530;2023-05-10T01:31:18;12.80;99.90
46336;DHT22;31365;48.858;8.530;2023-05-10T01:34:01;12.80;99.90
46336;DHT22;31365;48.858;8.530;2023-05-10T01:36:40;12.80;99.90
46336;DHT22;31365;48.858;8.530;2023-05-10T01:39:19;12.80;99.90
46336;DHT22;31365;48.858;8.530;2023-05-10T01:41:55;12.80;99.90
46336;DHT22;31365;48.858;8.530;2023-05-10T01:44:31;12.70;99.90
46336;DHT22;31365;48.858;8.530;2023-05-10T01:47:07;12.70;99.90
46336;DHT22;31365;48.858;8.530;2023-05-10T01:49:43;12.70;99.90
46336;DHT22;31365;48.858;8.530;2023-05-10T01:52:18;12.60;99.90
46336;DHT22;31365;48.858;8.530;2023-05-10T01:54:52;12.70;99.90
46336;DHT22;31365;48.858;8.530;2023-05-10T01:57:44;12.70;99.90
46336;DHT22;31365;48.858;8.530;2023-05-10T02:00:16;12.70;99.90
46336;DHT22;31365;48.858;8.530;2023-05-10T02:02:52;12.70;99.90
46336;DHT22;31365;48.858;8.530;2023-05-10T02:05:24;12.70;99.90
46336;DHT22;31365;48.858;8.530;2023-05-10T02:07:55;12.70;99.90
46336;DHT22;31365;48.858;8.530;2023-05-10T02:10:26;12.70;99.90
46336;DHT22;31365;48.858;8.530;2023-05-10T02:17:38;12.80;99.90
46336;DHT22;31365;48.858;8.530;2023-05-10T04:36:36;13.00;99.90
46336;DHT22;31365;48.858;8.530;2023-05-10T04:39:04;13.00;99.90
46336;DHT22;31365;48.858;8.530;2023-05-10T04:41:32;13.10;99.90
46336;DHT22;31365;48.858;8.530;2023-05-10T04:44:01;13.10;99.90
46336;DHT22;31365;48.858;8.530;2023-05-10T04:46:29;13.10;99.90
46336;DHT22;31365;48.858;8.530;2023-05-10T04:48:57;13.10;99.90
46336;DHT22;31365;48.858;8.530;2023-05-10T04:51:25;13.10;99.90
46336;DHT22;31365;48.858;8.530;2023-05-10T04:53:55;13.20;99.90
46336;DHT22;31365;48.858;8.530;2023-05-10T04:56:32;13.20;99.90
46336;DHT22;31365;48.858;8.530;2023-05-10T04:59:00;13.20;99.90
46336;DHT22;31365;48.858;8.530;2023-05-10T05:01:29;13.20;99.90
46336;DHT22;31365;48.858;8.530;2023-05-10T05:03:58;13.20;99.90
46336;DHT22;31365;48.858;8.530;2023-05-10T05:06:26;13.20;99.90
46336;DHT22;31365;48.858;8.530;2023-05-10T05:08:56;13.20;99.90
46336;DHT22;31365;48.858;8.530;2023-05-10T05:11:25;13.30;99.90
46336;DHT22;31365;48.858;8.530;2023-05-10T05:13:53;13.20;99.90
46336;DHT22;31365;48.858;8.530;2023-05-10T05:16:21;13.30;99.90
46336;DHT22;31365;48.858;8.530;2023-05-10T05:18:49;13.30;99.90
46336;DHT22;31365;48.858;8.530;2023-05-10T05:21:18;13.30;99.90
46336;DHT22;31365;48.858;8.530;2023-05-10T05:23:48;13.30;99.90
46336;DHT22;31365;48.858;8.530;2023-05-10T05:26:17;13.30;99.90
46336;DHT22;31365;48.858;8.530;2023-05-10T05:28:45;13.30;99.90
46336;DHT22;31365;48.858;8.530;2023-05-10T05:31:15;13.40;99.90
46336;DHT22;31365;48.858;8.530;2023-05-10T05:33:44;13.40;99.90
46336;DHT22;31365;48.858;8.530;2023-05-10T05:36:12;13.40;99.90
46336;DHT22;31365;48.858;8.530;2023-05-10T05:38:40;13.40;99.90
46336;DHT22;31365;48.858;8.530;2023-05-10T05:41:09;13.40;99.90
46336;DHT22;31365;48.858;8.530;2023-05-10T05:43:38;13.40;99.90
46336;DHT22;31365;48.858;8.530;2023-05-10T05:46:07;13.40;99.90
46336;DHT22;31365;48.858;8.530;2023-05-10T05:48:35;13.40;99.90
46336;DHT22;31365;48.858;8.530;2023-05-10T05:51:03;13.50;99.90
46336;DHT22;31365;48.858;8.530;2023-05-10T05:53:33;13.50;99.90
46336;DHT22;31365;48.858;8.530;2023-05-10T05:56:01;13.50;99.90
46336;DHT22;31365;48.858;8.530;2023-05-10T05:58:30;13.50;99.90
46336;DHT22;31365;48.858;8.530;2023-05-10T06:01:00;13.60;99.90
46336;DHT22;31365;48.858;8.530;2023-05-10T06:03:28;13.60;99.90
46336;DHT22;31365;48.858;8.530;2023-05-10T06:05:57;13.60;99.90
46336;DHT22;31365;48.858;8.530;2023-05-10T06:08:26;13.60;99.90
46336;DHT22;31365;48.858;8.530;2023-05-10T06:10:54;13.60;99.90
46336;DHT22;31365;48.858;8.530;2023-05-10T06:13:23;13.70;99.90
46336;DHT22;31365;48.858;8.530;2023-05-10T06:15:51;13.80;99.90
46336;DHT22;31365;48.858;8.530;2023-05-10T06:18:21;13.90;99.90
46336;DHT22;31365;48.858;8.530;2023-05-10T06:20:49;13.90;99.90
46336;DHT22;31365;48.858;8.530;2023-05-10T06:23:18;13.90;99.90
46336;DHT22;31365;48.858;8.530;2023-05-10T06:25:46;14.00;99.90
46336;DHT22;31365;48.858;8.530;2023-05-10T06:28:14;14.10;99.90
46336;DHT22;31365;48.858;8.530;2023-05-10T06:30:42;14.20;99.90
46336;DHT22;31365;48.858;8.530;2023-05-10T06:33:11;14.20;99.90
46336;DHT22;31365;48.858;8.530;2023-05-10T06:35:41;14.30;99.90
46336;DHT22;31365;48.858;8.530;2023-05-10T06:38:09;14.40;99.90
46336;DHT22;31365;48.858;8.530;2023-05-10T06:40:41;14.50;99.90
46336;DHT22;31365;48.858;8.530;2023-05-10T06:43:10;14.50;99.90
46336;DHT22;31365;48.858;8.530;2023-05-10T06:45:38;14.50;99.90
46336;DHT22;31365;48.858;8.530;2023-05-10T06:48:07;14.60;99.90
46336;DHT22;31365;48.858;8.530;2023-05-10T06:50:36;14.60;99.90
46336;DHT22;31365;48.858;8.530;2023-05-10T06:53:05;14.60;99.90
46336;DHT22;31365;48.858;8.530;2023-05-10T06:55:34;14.70;99.90
46336;DHT22;31365;48.858;8.530;2023-05-10T06:58:02;14.70;99.90
46336;DHT22;31365;48.858;8.530;2023-05-10T07:00:31;14.60;99.90
46336;DHT22;31365;48.858;8.530;2023-05-10T07:02:59;14.50;99.90
46336;DHT22;31365;48.858;8.530;2023-05-10T07:05:28;14.60;99.90
46336;DHT22;31365;48.858;8.530;2023-05-10T07:07:56;14.70;99.90
46336;DHT22;31365;48.858;8.530;2023-05-10T07:10:26;14.60;99.90
46336;DHT22;31365;48.858;8.530;2023-05-10T07:12:54;14.60;99.90
46336;DHT22;31365;48.858;8.530;2023-05-10T07:15:22;14.80;99.90
46336;DHT22;31365;48.858;8.530;2023-05-10T07:17:51;14.80;99.90
46336;DHT22;31365;48.858;8.530;2023-05-10T07:20:19;14.80;99.90
46336;DHT22;31365;48.858;8.530;2023-05-10T07:22:47;14.90;99.90
46336;DHT22;31365;48.858;8.530;2023-05-10T07:25:16;15.00;99.90
46336;DHT22;31365;48.858;8.530;2023-05-10T07:27:46;15.00;99.90
46336;DHT22;31365;48.858;8.530;2023-05-10T07:30:15;15.10;99.90
46336;DHT22;31365;48.858;8.530;2023-05-10T07:32:43;15.20;99.90
46336;DHT22;31365;48.858;8.530;2023-05-10T07:35:12;15.30;99.90
46336;DHT22;31365;48.858;8.530;2023-05-10T07:37:40;15.60;99.90
46336;DHT22;31365;48.858;8.530;2023-05-10T07:40:09;15.60;99.90
46336;DHT22;31365;48.858;8.530;2023-05-10T07:42:38;15.70;99.90
46336;DHT22;31365;48.858;8.530;2023-05-10T07:45:08;15.70;99.90
46336;DHT22;31365;48.858;8.530;2023-05-10T07:47:37;15.60;99.90
46336;DHT22;31365;48.858;8.530;2023-05-10T07:50:07;15.50;99.90
46336;DHT22;31365;48.858;8.530;2023-05-10T07:52:36;15.40;99.90
46336;DHT22;31365;48.858;8.530;2023-05-10T07:55:05;15.40;99.90
46336;DHT22;31365;48.858;8.530;2023-05-10T07:57:34;15.40;99.90
46336;DHT22;31365;48.858;8.530;2023-05-10T08:00:04;15.40;99.90
46336;DHT22;31365;48.858;8.530;2023-05-10T08:02:40;15.20;99.90
46336;DHT22;31365;48.858;8.530;2023-05-10T08:05:09;15.20;99.90
46336;DHT22;31365;48.858;8.530;2023-05-10T08:07:37;15.20;99.90
46336;DHT22;31365;48.858;8.530;2023-05-10T08:10:07;15.20;99.90
46336;DHT22;31365;48.858;8.530;2023-05-10T08:12:38;15.30;99.90
46336;DHT22;31365;48.858;8.530;2023-05-10T08:15:07;15.30;99.90
46336;DHT22;31365;48.858;8.530;2023-05-10T08:17:36;15.40;99.90
46336;DHT22;31365;48.858;8.530;2023-05-10T08:20:06;15.50;99.90
46336;DHT22;31365;48.858;8.530;2023-05-10T08:22:35;15.60;99.90
46336;DHT22;31365;48.858;8.530;2023-05-10T08:25:05;15.60;99.90
46336;DHT22;31365;48.858;8.530;2023-05-10T08:27:33;15.60;99.90
46336;DHT22;31365;48.858;8.530;2023-05-10T08:30:02;15.40;99.90
46336;DHT22;31365;48.858;8.530;2023-05-10T08:32:31;15.20;99.90
46336;DHT22;31365;48.858;8.530;2023-05-10T08:34:59;15.10;99.90
46336;DHT22;31365;48.858;8.530;2023-05-10T08:37:31;15.00;99.90
46336;DHT22;31365;48.858;8.530;2023-05-10T08:40:00;15.00;99.90
46336;DHT22;31365;48.858;8.530;2023-05-10T08:42:30;15.00;99.90
46336;DHT22;31365;48.858;8.530;2023-05-10T08:45:03;15.00;99.90
46336;DHT22;31365;48.858;8.530;2023-05-10T08:47:34;15.00;99.90
46336;DHT22;31365;48.858;8.530;2023-05-10T08:50:06;15.00;99.90
46336;DHT22;31365;48.858;8.530;2023-05-10T08:52:38;15.10;99.90
46336;DHT22;31365;48.858;8.530;2023-05-10T08:55:09;15.10;99.90
46336;DHT22;31365;48.858;8.530;2023-05-10T08:57:37;15.10;99.90
46336;DHT22;31365;48.858;8.530;2023-05-10T09:00:07;15.10;99.90
46336;DHT22;31365;48.858;8.530;2023-05-10T09:02:37;15.20;99.90
46336;DHT22;31365;48.858;8.530;2023-05-10T09:05:06;15.20;99.90
46336;DHT22;31365;48.858;8.530;2023-05-10T09:07:37;15.00;99.90
46336;DHT22;31365;48.858;8.530;2023-05-10T09:10:06;14.80;99.90
46336;DHT22;31365;48.858;8.530;2023-05-10T09:12:36;14.60;99.90
46336;DHT22;31365;48.858;8.530;2023-05-10T09:15:06;14.50;99.90
46336;DHT22;31365;48.858;8.530;2023-05-10T09:17:35;14.40;99.90
46336;DHT22;31365;48.858;8.530;2023-05-10T09:20:05;14.50;99.90
46336;DHT22;31365;48.858;8.530;2023-05-10T09:22:34;14.70;99.90
46336;DHT22;31365;48.858;8.530;2023-05-10T09:25:05;14.90;99.90
46336;DHT22;31365;48.858;8.530;2023-05-10T09:27:35;14.90;99.90
46336;DHT22;31365;48.858;8.530;2023-05-10T09:30:05;14.90;99.90
46336;DHT22;31365;48.858;8.530;2023-05-10T09:32:39;14.80;99.90
46336;DHT22;31365;48.858;8.530;2023-05-10T09:35:10;14.80;99.90
46336;DHT22;31365;48.858;8.530;2023-05-10T09:37:40;14.80;99.90
46336;DHT22;31365;48.858;8.530;2023-05-10T09:40:14;14.80;99.90
46336;DHT22;31365;48.858;8.530;2023-05-10T09:42:51;14.70;99.90
46336;DHT22;31365;48.858;8.530;2023-05-10T09:45:21;14.80;99.90
46336;DHT22;31365;48.858;8.530;2023-05-10T09:47:50;14.90;99.90
46336;DHT22;31365;48.858;8.530;2023-05-10T09:50:19;15.00;99.90
46336;DHT22;31365;48.858;8.530;2023-05-10T09:52:50;15.10;99.90
46336;DHT22;31365;48.858;8.530;2023-05-10T09:55:21;15.30;99.90
46336;DHT22;31365;48.858;8.530;2023-05-10T09:58:00;15.50;99.90
46336;DHT22;31365;48.858;8.530;2023-05-10T10:00:34;15.60;99.90
46336;DHT22;31365;48.858;8.530;2023-05-10T10:03:04;15.80;99.90
46336;DHT22;31365;48.858;8.530;2023-05-10T10:05:34;15.90;99.90
46336;DHT22;31365;48.858;8.530;2023-05-10T10:08:04;16.00;99.90
46336;DHT22;31365;48.858;8.530;2023-05-10T10:10:34;16.10;99.90
46336;DHT22;31365;48.858;8.530;2023-05-10T10:13:03;16.30;99.90
46336;DHT22;31365;48.858;8.530;2023-05-10T10:15:33;16.30;99.90
46336;DHT22;31365;48.858;8.530;2023-05-10T10:18:02;16.30;99.90
46336;DHT22;31365;48.858;8.530;2023-05-10T10:20:31;16.50;99.90
46336;DHT22;31365;48.858;8.530;2023-05-10T10:22:59;16.70;99.90
46336;DHT22;31365;48.858;8.530;2023-05-10T10:25:27;16.80;99.90
46336;DHT22;31365;48.858;8.530;2023-05-10T10:28:09;16.80;99.90
46336;DHT22;31365;48.858;8.530;2023-05-10T10:30:47;17.00;99.90
46336;DHT22;31365;48.858;8.530;2023-05-10T10:33:50;17.20;99.90
46336;DHT22;31365;48.858;8.530;2023-05-10T10:36:25;17.10;99.90
46336;DHT22;31365;48.858;8.530;2023-05-10T10:38:56;17.00;99.90
46336;DHT22;31365;48.858;8.530;2023-05-10T10:41:29;17.00;99.90
46336;DHT22;31365;48.858;8.530;2023-05-10T10:44:26;16.80;99.90
46336;DHT22;31365;48.858;8.530;2023-05-10T10:47:05;16.80;99.90
46336;DHT22;31365;48.858;8.530;2023-05-10T10:49:43;16.60;99.90
46336;DHT22;31365;48.858;8.530;2023-05-10T10:52:23;16.80;99.90
46336;DHT22;31365;48.858;8.530;2023-05-10T10:55:00;16.80;99.90
46336;DHT22;31365;48.858;8.530;2023-05-10T10:57:43;16.70;99.90
46336;DHT22;31365;48.858;8.530;2023-05-10T11:00:27;16.60;99.90
46336;DHT22;31365;48.858;8.530;2023-05-10T11:02:59;16.30;99.90
46336;DHT22;31365;48.858;8.530;2023-05-10T11:05:36;16.30;99.90
46336;DHT22;31365;48.858;8.530;2023-05-10T11:08:15;16.00;99.90
46336;DHT22;31365;48.858;8.530;2023-05-10T11:11:04;15.90;99.90
46336;DHT22;31365;48.858;8.530;2023-05-10T11:13:41;16.00;99.90
46336;DHT22;31365;48.858;8.530;2023-05-10T11:16:16;16.30;99.90
46336;DHT22;31365;48.858;8.530;2023-05-10T11:19:00;16.20;99.90
46336;DHT22;31365;48.858;8.530;2023-05-10T11:21:30;16.20;99.90
46336;DHT22;31365;48.858;8.530;2023-05-10T11:24:00;16.40;99.90
46336;DHT22;31365;48.858;8.530;2023-05-10T11:26:34;16.40;99.90
46336;DHT22;31365;48.858;8.530;2023-05-10T11:29:04;16.20;99.90
46336;DHT22;31365;48.858;8.530;2023-05-10T11:31:34;16.10;99.90
46336;DHT22;31365;48.858;8.530;2023-05-10T11:34:02;16.20;99.90
46336;DHT22;31365;48.858;8.530;2023-05-10T11:36:33;16.10;99.90
46336;DHT22;31365;48.858;8.530;2023-05-10T11:39:04;16.00;99.90
46336;DHT22;31365;48.858;8.530;2023-05-10T11:41:33;16.10;99.90
46336;DHT22;31365;48.858;8.530;2023-05-10T11:44:01;16.30;99.90
46336;DHT22;31365;48.858;8.530;2023-05-10T11:46:29;16.40;99.90
46336;DHT22;31365;48.858;8.530;2023-05-10T11:49:00;16.50;99.90
46336;DHT22;31365;48.858;8.530;2023-05-10T11:51:33;16.50;99.90
46336;DHT22;31365;48.858;8.530;2023-05-10T11:54:06;16.70;99.90
46336;DHT22;31365;48.858;8.530;2023-05-10T11:56:36;16.70;99.90
46336;DHT22;31365;48.858;8.530;2023-05-10T11:59:05;16.50;99.90
46336;DHT22;31365;48.858;8.530;2023-05-10T12:01:33;16.40;99.90
46336;DHT22;31365;48.858;8.530;2023-05-10T12:04:04;16.60;99.90
46336;DHT22;31365;48.858;8.530;2023-05-10T12:06:36;17.00;99.90
46336;DHT22;31365;48.858;8.530;2023-05-10T12:09:08;17.60;99.90
46336;DHT22;31365;48.858;8.530;2023-05-10T12:11:39;18.20;99.90
46336;DHT22;31365;48.858;8.530;2023-05-10T12:14:10;18.40;99.90
46336;DHT22;31365;48.858;8.530;2023-05-10T12:16:38;18.40;99.90
46336;DHT22;31365;48.858;8.530;2023-05-10T12:19:08;18.60;99.90
46336;DHT22;31365;48.858;8.530;2023-05-10T12:21:37;18.90;99.90
46336;DHT22;31365;48.858;8.530;2023-05-10T12:24:05;19.10;99.90
46336;DHT22;31365;48.858;8.530;2023-05-10T12:26:35;19.00;99.90
46336;DHT22;31365;48.858;8.530;2023-05-10T12:29:14;19.10;99.90
46336;DHT22;31365;48.858;8.530;2023-05-10T12:31:51;19.00;99.90
46336;DHT22;31365;48.858;8.530;2023-05-10T12:34:26;18.90;99.90
46336;DHT22;31365;48.858;8.530;2023-05-10T12:36:55;18.90;99.90
46336;DHT22;31365;48.858;8.530;2023-05-10T12:39:23;18.90;99.90
46336;DHT22;31365;48.858;8.530;2023-05-10T12:41:52;18.80;99.90
46336;DHT22;31365;48.858;8.530;2023-05-10T12:44:20;18.80;99.90
46336;DHT22;31365;48.858;8.530;2023-05-10T12:46:48;18.90;99.90
46336;DHT22;31365;48.858;8.530;2023-05-10T12:49:16;19.00;99.90
46336;DHT22;31365;48.858;8.530;2023-05-10T12:51:46;18.70;99.90
46336;DHT22;31365;48.858;8.530;2023-05-10T12:54:14;18.60;99.90
46336;DHT22;31365;48.858;8.530;2023-05-10T12:56:43;18.80;99.90
46336;DHT22;31365;48.858;8.530;2023-05-10T12:59:11;18.90;99.90
46336;DHT22;31365;48.858;8.530;2023-05-10T13:01:39;18.80;99.90
46336;DHT22;31365;48.858;8.530;2023-05-10T13:04:08;18.60;99.90
46336;DHT22;31365;48.858;8.530;2023-05-10T13:06:36;18.40;99.90
46336;DHT22;31365;48.858;8.530;2023-05-10T13:09:05;18.60;99.90
46336;DHT22;31365;48.858;8.530;2023-05-10T13:11:34;18.90;99.90
46336;DHT22;31365;48.858;8.530;2023-05-10T13:14:03;19.30;99.90
46336;DHT22;31365;48.858;8.530;2023-05-10T13:16:31;19.60;99.90
46336;DHT22;31365;48.858;8.530;2023-05-10T13:18:59;19.70;99.90
46336;DHT22;31365;48.858;8.530;2023-05-10T13:21:28;20.00;99.90
46336;DHT22;31365;48.858;8.530;2023-05-10T13:23:57;20.20;99.90
46336;DHT22;31365;48.858;8.530;2023-05-10T13:26:26;20.50;99.90
46336;DHT22;31365;48.858;8.530;2023-05-10T13:28:54;20.60;99.90
46336;DHT22;31365;48.858;8.530;2023-05-10T13:31:23;20.30;99.90
46336;DHT22;31365;48.858;8.530;2023-05-10T13:33:51;19.80;99.90
46336;DHT22;31365;48.858;8.530;2023-05-10T13:36:19;19.30;99.90
46336;DHT22;31365;48.858;8.530;2023-05-10T13:38:49;19.00;99.90
46336;DHT22;31365;48.858;8.530;2023-05-10T13:41:17;18.50;99.90
46336;DHT22;31365;48.858;8.530;2023-05-10T13:43:47;18.40;99.90
46336;DHT22;31365;48.858;8.530;2023-05-10T13:46:15;18.40;99.90
46336;DHT22;31365;48.858;8.530;2023-05-10T13:48:43;18.30;99.90
46336;DHT22;31365;48.858;8.530;2023-05-10T13:51:11;18.50;99.90
46336;DHT22;31365;48.858;8.530;2023-05-10T13:53:39;18.60;99.90
46336;DHT22;31365;48.858;8.530;2023-05-10T13:56:08;18.40;99.90
46336;DHT22;31365;48.858;8.530;2023-05-10T13:58:36;18.80;99.90
46336;DHT22;31365;48.858;8.530;2023-05-10T14:01:05;19.10;99.90
46336;DHT22;31365;48.858;8.530;2023-05-10T14:03:33;19.40;99.90
46336;DHT22;31365;48.858;8.530;2023-05-10T14:06:02;19.70;99.90
46336;DHT22;31365;48.858;8.530;2023-05-10T14:08:30;19.90;99.90
46336;DHT22;31365;48.858;8.530;2023-05-10T14:11:00;20.10;99.90
46336;DHT22;31365;48.858;8.530;2023-05-10T14:13:29;20.10;99.90
46336;DHT22;31365;48.858;8.530;2023-05-10T14:15:57;20.10;99.90
46336;DHT22;31365;48.858;8.530;2023-05-10T14:18:28;19.90;99.90
46336;DHT22;31365;48.858;8.530;2023-05-10T14:20:57;20.40;99.90
46336;DHT22;31365;48.858;8.530;2023-05-10T14:23:25;20.80;99.90
46336;DHT22;31365;48.858;8.530;2023-05-10T14:25:55;21.10;99.90
46336;DHT22;31365;48.858;8.530;2023-05-10T14:28:24;21.10;99.90
46336;DHT22;31365;48.858;8.530;2023-05-10T14:30:52;20.90;99.90
46336;DHT22;31365;48.858;8.530;2023-05-10T14:33:21;20.70;99.90
46336;DHT22;31365;48.858;8.530;2023-05-10T14:35:51;20.70;99.90
46336;DHT22;31365;48.858;8.530;2023-05-10T14:38:19;20.50;99.90
46336;DHT22;31365;48.858;8.530;2023-05-10T14:40:47;20.40;99.90
46336;DHT22;31365;48.858;8.530;2023-05-10T14:43:16;20.00;99.90
46336;DHT22;31365;48.858;8.530;2023-05-10T14:45:44;19.60;99.90
46336;DHT22;31365;48.858;8.530;2023-05-10T14:48:14;19.40;99.90
46336;DHT22;31365;48.858;8.530;2023-05-10T14:50:45;19.30;99.90
46336;DHT22;31365;48.858;8.530;2023-05-10T14:53:15;19.10;99.90
46336;DHT22;31365;48.858;8.530;2023-05-10T14:55:44;18.80;99.90
46336;DHT22;31365;48.858;8.530;2023-05-10T14:58:12;18.60;99.90
46336;DHT22;31365;48.858;8.530;2023-05-10T15:00:41;18.50;99.90
46336;DHT22;31365;48.858;8.530;2023-05-10T15:03:10;18.40;99.90
46336;DHT22;31365;48.858;8.530;2023-05-10T15:05:39;18.40;99.90
46336;DHT22;31365;48.858;8.530;2023-05-10T15:08:07;18.40;99.90
46336;DHT22;31365;48.858;8.530;2023-05-10T15:10:37;18.40;99.90
46336;DHT22;31365;48.858;8.530;2023-05-10T15:13:06;18.50;99.90
46336;DHT22;31365;48.858;8.530;2023-05-10T15:15:34;18.60;99.90
46336;DHT22;31365;48.858;8.530;2023-05-10T15:18:02;18.90;99.90
46336;DHT22;31365;48.858;8.530;2023-05-10T15:20:31;19.00;99.90
46336;DHT22;31365;48.858;8.530;2023-05-10T15:22:59;18.60;99.90
46336;DHT22;31365;48.858;8.530;2023-05-10T15:25:27;18.40;99.90
46336;DHT22;31365;48.858;8.530;2023-05-10T15:27:57;18.20;99.90
46336;DHT22;31365;48.858;8.530;2023-05-10T15:30:25;17.90;99.90
46336;DHT22;31365;48.858;8.530;2023-05-10T15:32:53;17.70;99.90
46336;DHT22;31365;48.858;8.530;2023-05-10T15:35:22;17.50;99.90
46336;DHT22;31365;48.858;8.530;2023-05-10T15:37:50;17.20;99.90
46336;DHT22;31365;48.858;8.530;2023-05-10T15:40:18;17.00;99.90
46336;DHT22;31365;48.858;8.530;2023-05-10T15:42:47;16.80;99.90
46336;DHT22;31365;48.858;8.530;2023-05-10T15:45:16;16.70;99.90
46336;DHT22;31365;48.858;8.530;2023-05-10T15:47:45;16.60;99.90
46336;DHT22;31365;48.858;8.530;2023-05-10T15:50:14;16.40;99.90
46336;DHT22;31365;48.858;8.530;2023-05-10T15:52:43;16.40;99.90
46336;DHT22;31365;48.858;8.530;2023-05-10T15:55:12;16.50;99.90
46336;DHT22;31365;48.858;8.530;2023-05-10T15:57:41;16.60;99.90
46336;DHT22;31365;48.858;8.530;2023-05-10T16:00:11;16.50;99.90
46336;DHT22;31365;48.858;8.530;2023-05-10T16:02:41;16.70;99.90
46336;DHT22;31365;48.858;8.530;2023-05-10T16:05:09;16.90;99.90
46336;DHT22;31365;48.858;8.530;2023-05-10T16:07:38;17.10;99.90
46336;DHT22;31365;48.858;8.530;2023-05-10T16:10:09;17.20;99.90
46336;DHT22;31365;48.858;8.530;2023-05-10T16:12:38;17.20;99.90
46336;DHT22;31365;48.858;8.530;2023-05-10T16:15:08;17.20;99.90
46336;DHT22;31365;48.858;8.530;2023-05-10T16:17:36;17.30;99.90
46336;DHT22;31365;48.858;8.530;2023-05-10T16:20:07;17.40;99.90
46336;DHT22;31365;48.858;8.530;2023-05-10T16:22:36;17.50;99.90
46336;DHT22;31365;48.858;8.530;2023-05-10T16:25:05;17.40;99.90
46336;DHT22;31365;48.858;8.530;2023-05-10T16:27:33;17.50;99.90
46336;DHT22;31365;48.858;8.530;2023-05-10T16:30:02;17.40;99.90
46336;DHT22;31365;48.858;8.530;2023-05-10T16:32:30;17.20;99.90
46336;DHT22;31365;48.858;8.530;2023-05-10T16:34:59;17.10;99.90
46336;DHT22;31365;48.858;8.530;2023-05-10T16:37:29;17.00;99.90
46336;DHT22;31365;48.858;8.530;2023-05-10T16:39:57;17.00;99.90
46336;DHT22;31365;48.858;8.530;2023-05-10T16:42:26;17.00;99.90
46336;DHT22;31365;48.858;8.530;2023-05-10T16:44:55;16.90;99.90
46336;DHT22;31365;48.858;8.530;2023-05-10T16:47:23;16.80;99.90
46336;DHT22;31365;48.858;8.530;2023-05-10T16:49:53;16.70;99.90
46336;DHT22;31365;48.858;8.530;2023-05-10T16:52:21;16.80;99.90
46336;DHT22;31365;48.858;8.530;2023-05-10T16:54:53;16.70;99.90
46336;DHT22;31365;48.858;8.530;2023-05-10T16:57:21;16.70;99.90
46336;DHT22;31365;48.858;8.530;2023-05-10T16:59:50;16.60;99.90
46336;DHT22;31365;48.858;8.530;2023-05-10T17:02:19;16.70;99.90
46336;DHT22;31365;48.858;8.530;2023-05-10T17:04:47;16.70;99.90
46336;DHT22;31365;48.858;8.530;2023-05-10T17:07:15;16.60;99.90
46336;DHT22;31365;48.858;8.530;2023-05-10T17:09:45;16.60;99.90
46336;DHT22;31365;48.858;8.530;2023-05-10T17:12:14;16.50;99.90
46336;DHT22;31365;48.858;8.530;2023-05-10T17:14:43;16.30;99.90
46336;DHT22;31365;48.858;8.530;2023-05-10T17:17:11;16.20;99.90
46336;DHT22;31365;48.858;8.530;2023-05-10T17:19:39;16.20;99.90
46336;DHT22;31365;48.858;8.530;2023-05-10T17:22:11;16.10;99.90
46336;DHT22;31365;48.858;8.530;2023-05-10T17:24:39;15.90;99.90
46336;DHT22;31365;48.858;8.530;2023-05-10T17:27:07;15.90;99.90
46336;DHT22;31365;48.858;8.530;2023-05-10T17:29:36;15.80;99.90
46336;DHT22;31365;48.858;8.530;2023-05-10T17:32:05;15.80;99.90
46336;DHT22;31365;48.858;8.530;2023-05-10T17:34:34;15.70;99.90
46336;DHT22;31365;48.858;8.530;2023-05-10T17:37:03;15.70;99.90
46336;DHT22;31365;48.858;8.530;2023-05-10T17:39:33;15.70;99.90
46336;DHT22;31365;48.858;8.530;2023-05-10T17:42:02;15.70;99.90
46336;DHT22;31365;48.858;8.530;2023-05-10T17:44:31;15.60;99.90
46336;DHT22;31365;48.858;8.530;2023-05-10T17:47:00;15.50;99.90
46336;DHT22;31365;48.858;8.530;2023-05-10T17:49:28;15.40;99.90
46336;DHT22;31365;48.858;8.530;2023-05-10T17:51:56;15.30;99.90
46336;DHT22;31365;48.858;8.530;2023-05-10T17:54:24;15.30;99.90
46336;DHT22;31365;48.858;8.530;2023-05-10T17:56:52;15.30;99.90
46336;DHT22;31365;48.858;8.530;2023-05-10T17:59:21;15.40;99.90
46336;DHT22;31365;48.858;8.530;2023-05-10T18:01:49;15.30;99.90
46336;DHT22;31365;48.858;8.530;2023-05-10T18:04:18;15.20;99.90
46336;DHT22;31365;48.858;8.530;2023-05-10T18:06:47;15.10;99.90
46336;DHT22;31365;48.858;8.530;2023-05-10T18:09:15;15.00;99.90
46336;DHT22;31365;48.858;8.530;2023-05-10T18:11:44;15.00;99.90